Time;durP1;ratioP1;P1;durP2;ratioP2;P2;SDS_P1;SDS_P2;PMS_P1;PMS_P2;Temp;Humidity;BMP_temperature;BMP_pressure;BME280_temperature;BME280_humidity;BME280_pressure;Samples;Min_cycle;Max_cycle;Signal;HPM_P1;HPM_P2
2021/09/03 00:00:20;;;;;;;11.77;6.82;;;14.00;99.90;;;;;;5046171;28;20034;-81
2021/09/03 00:02:46;;;;;;;12.20;5.63;;;13.90;99.90;;;;;;5046388;28;20128;-82
2021/09/03 00:05:19;;;;;;;9.25;5.53;;;13.90;99.90;;;;;;5046189;28;20033;-81
2021/09/03 00:07:46;;;;;;;12.38;7.50;;;13.80;99.90;;;;;;5046046;28;20228;-81
2021/09/03 00:10:13;;;;;;;10.07;5.90;;;13.90;99.90;;;;;;5046159;28;20057;-81
2021/09/03 00:12:39;;;;;;;10.75;5.82;;;13.80;99.90;;;;;;5047431;28;20030;-81
2021/09/03 00:15:08;;;;;;;11.63;6.38;;;13.80;99.90;;;;;;5045901;28;20180;-81
2021/09/03 00:17:34;;;;;;;13.07;7.35;;;13.80;99.90;;;;;;5045566;28;20033;-81
2021/09/03 00:19:59;;;;;;;10.35;6.72;;;13.80;99.90;;;;;;5046080;28;20040;-81
2021/09/03 00:22:27;;;;;;;10.75;7.28;;;13.80;99.90;;;;;;5029458;28;20101;-81
2021/09/03 00:24:53;;;;;;;12.60;7.28;;;13.80;99.90;;;;;;5046875;28;20037;-81
2021/09/03 00:27:19;;;;;;;13.77;7.82;;;13.70;99.90;;;;;;5029072;28;20101;-81
2021/09/03 00:29:44;;;;;;;9.85;7.18;;;13.70;99.90;;;;;;5029222;28;20042;-82
2021/09/03 00:32:10;;;;;;;11.70;7.20;;;13.80;99.90;;;;;;5045843;28;20041;-81
2021/09/03 00:34:36;;;;;;;11.77;7.38;;;13.70;99.90;;;;;;5045750;28;20033;-81
2021/09/03 00:37:01;;;;;;;13.13;7.88;;;13.60;99.90;;;;;;5045528;28;20064;-81
2021/09/03 00:39:27;;;;;;;14.95;8.13;;;13.60;99.90;;;;;;5045599;28;20033;-81
2021/09/03 00:41:52;;;;;;;13.15;6.53;;;13.50;99.90;;;;;;5045515;28;20041;-81
2021/09/03 00:44:18;;;;;;;12.20;7.32;;;13.50;99.90;;;;;;5029072;28;20025;-81
2021/09/03 00:47:04;;;;;;;12.52;6.85;;;13.50;99.90;;;;;;5028484;28;20043;-81
2021/09/03 00:49:30;;;;;;;13.50;7.25;;;13.50;99.90;;;;;;5004681;28;20510;-81
2021/09/03 00:51:56;;;;;;;12.35;7.35;;;13.50;99.90;;;;;;4988615;28;20045;-81
2021/09/03 00:54:22;;;;;;;11.93;6.30;;;13.50;99.90;;;;;;4988755;28;20043;-81
2021/09/03 00:56:47;;;;;;;12.23;7.43;;;13.40;99.90;;;;;;4988571;28;20034;-81
2021/09/03 00:59:13;;;;;;;15.73;8.10;;;13.40;99.90;;;;;;5004728;28;20058;-81
2021/09/03 01:01:38;;;;;;;14.25;7.85;;;13.40;99.90;;;;;;4971906;28;20118;-81
2021/09/03 01:04:04;;;;;;;14.27;9.00;;;13.40;99.90;;;;;;4972476;28;20038;-82
2021/09/03 01:06:30;;;;;;;15.27;8.80;;;13.40;99.90;;;;;;5004590;28;20049;-81
2021/09/03 01:08:56;;;;;;;15.25;7.85;;;13.40;99.90;;;;;;4971991;28;20106;-81
2021/09/03 01:11:21;;;;;;;13.88;7.55;;;13.40;99.90;;;;;;4988394;28;20034;-81
2021/09/03 01:13:47;;;;;;;14.85;7.85;;;13.40;99.90;;;;;;4988355;28;20049;-82
2021/09/03 01:16:13;;;;;;;13.50;7.60;;;13.40;99.90;;;;;;4971858;28;20044;-81
2021/09/03 01:18:38;;;;;;;14.90;8.70;;;13.30;99.90;;;;;;5004237;28;20061;-81
2021/09/03 01:21:04;;;;;;;15.85;9.68;;;13.30;99.90;;;;;;4987923;28;20050;-81
2021/09/03 01:23:29;;;;;;;15.27;8.98;;;13.30;99.90;;;;;;4988227;28;20514;-81
2021/09/03 01:25:55;;;;;;;15.38;9.82;;;13.30;99.90;;;;;;4999155;28;20052;-82
2021/09/03 01:28:20;;;;;;;12.68;8.77;;;13.30;99.90;;;;;;5044762;28;20033;-81
2021/09/03 01:30:46;;;;;;;14.77;8.93;;;13.30;99.90;;;;;;5044841;28;20037;-81
2021/09/03 01:33:12;;;;;;;16.65;9.15;;;13.30;99.90;;;;;;5027954;28;20030;-81
2021/09/03 01:35:37;;;;;;;15.85;9.65;;;13.20;99.90;;;;;;5028310;28;20084;-81
2021/09/03 01:38:06;;;;;;;18.08;9.13;;;13.30;99.90;;;;;;5044515;28;20029;-81
2021/09/03 01:40:31;;;;;;;18.08;10.32;;;13.30;99.90;;;;;;5044676;28;20037;-81
2021/09/03 01:42:57;;;;;;;16.60;9.32;;;13.30;99.90;;;;;;5028057;28;20064;-81
2021/09/03 01:45:23;;;;;;;14.73;8.57;;;13.30;99.90;;;;;;5028041;28;20443;-81
2021/09/03 01:47:48;;;;;;;14.50;8.30;;;13.20;99.90;;;;;;5043933;28;20063;-82
2021/09/03 01:50:14;;;;;;;13.50;8.35;;;13.20;99.90;;;;;;5045659;28;20036;-81
2021/09/03 01:52:40;;;;;;;16.35;8.23;;;13.20;99.90;;;;;;5044344;28;20033;-82
2021/09/03 01:55:06;;;;;;;16.42;8.48;;;13.20;99.90;;;;;;5044437;28;20048;-82
2021/09/03 01:57:32;;;;;;;13.93;8.35;;;13.10;99.90;;;;;;5044159;28;20039;-82
2021/09/03 01:59:57;;;;;;;15.32;10.40;;;13.10;99.90;;;;;;5045567;28;20025;-82
2021/09/03 02:02:23;;;;;;;17.85;10.25;;;13.10;99.90;;;;;;5027541;28;20037;-81
2021/09/03 02:04:49;;;;;;;15.15;8.90;;;13.10;99.90;;;;;;5027793;28;20026;-81
2021/09/03 02:07:14;;;;;;;15.93;10.23;;;13.10;99.90;;;;;;5044282;28;20097;-81
2021/09/03 02:09:40;;;;;;;17.92;10.15;;;13.00;99.90;;;;;;5045447;28;20025;-81
2021/09/03 02:12:06;;;;;;;14.07;8.27;;;13.00;99.90;;;;;;5044066;28;20439;-83
2021/09/03 02:14:31;;;;;;;15.48;9.48;;;13.00;99.90;;;;;;5044096;28;20037;-82
2021/09/03 02:16:57;;;;;;;14.82;8.98;;;13.00;99.90;;;;;;5044822;28;20053;-82
2021/09/03 02:19:22;;;;;;;14.80;9.07;;;13.00;99.90;;;;;;5027697;28;20037;-82
2021/09/03 02:21:48;;;;;;;12.02;7.75;;;13.00;99.90;;;;;;5045324;28;20041;-82
2021/09/03 02:24:14;;;;;;;14.20;8.77;;;12.90;99.90;;;;;;5043939;28;20034;-83
2021/09/03 02:26:40;;;;;;;15.13;9.00;;;12.90;99.90;;;;;;5044103;28;20093;-82
2021/09/03 02:29:05;;;;;;;14.23;9.57;;;12.90;99.90;;;;;;5043853;28;20033;-82
2021/09/03 02:31:31;;;;;;;14.02;8.70;;;12.90;99.90;;;;;;5045462;28;20388;-81
2021/09/03 02:33:57;;;;;;;14.73;9.95;;;12.90;99.90;;;;;;5027457;28;20037;-81
2021/09/03 02:36:22;;;;;;;14.98;9.27;;;12.90;99.90;;;;;;5044132;28;20057;-82
2021/09/03 02:38:48;;;;;;;18.38;9.63;;;12.90;99.90;;;;;;5027313;28;20037;-82
2021/09/03 02:41:13;;;;;;;15.15;8.98;;;12.80;99.90;;;;;;5045127;28;20075;-81
2021/09/03 02:43:39;;;;;;;14.20;9.60;;;12.80;99.90;;;;;;5027823;28;20033;-82
2021/09/03 02:46:05;;;;;;;12.23;7.68;;;12.80;99.90;;;;;;5031239;28;20033;-82
2021/09/03 02:48:30;;;;;;;19.80;11.10;;;12.80;99.90;;;;;;5054607;22;20045;-81
2021/09/03 02:50:56;;;;;;;17.98;10.48;;;12.80;99.90;;;;;;5064602;28;20030;-82
2021/09/03 02:53:22;;;;;;;18.67;11.05;;;12.80;99.90;;;;;;5064721;28;20030;-82
2021/09/03 02:55:48;;;;;;;21.30;11.50;;;12.70;99.90;;;;;;5064766;28;20028;-81
2021/09/03 02:58:13;;;;;;;16.25;8.65;;;12.70;99.90;;;;;;5064440;28;20124;-81
2021/09/03 03:00:39;;;;;;;16.23;9.18;;;12.70;99.90;;;;;;5048017;28;20035;-82
2021/09/03 03:03:04;;;;;;;16.02;9.57;;;12.60;99.90;;;;;;5047767;28;20063;-81
2021/09/03 03:05:30;;;;;;;17.45;10.82;;;12.70;99.90;;;;;;5047839;28;20033;-82
2021/09/03 03:07:55;;;;;;;15.18;9.02;;;12.70;99.90;;;;;;5064246;28;20044;-82
2021/09/03 03:10:21;;;;;;;16.95;10.60;;;12.70;99.90;;;;;;5047795;28;20030;-81
2021/09/03 03:12:52;;;;;;;17.13;10.25;;;12.60;99.90;;;;;;5047786;28;20033;-82
2021/09/03 03:15:17;;;;;;;21.48;11.35;;;12.60;99.90;;;;;;5047721;28;20113;-81
2021/09/03 03:17:43;;;;;;;16.25;11.13;;;12.70;99.90;;;;;;5030675;28;20053;-81
2021/09/03 03:20:10;;;;;;;20.83;11.30;;;12.60;99.90;;;;;;5047349;28;20018;-81
2021/09/03 03:22:40;;;;;;;18.83;11.00;;;12.60;99.90;;;;;;5047341;28;20052;-81
2021/09/03 03:25:06;;;;;;;21.35;12.05;;;12.60;99.90;;;;;;5047194;28;20025;-82
2021/09/03 03:27:31;;;;;;;21.65;13.07;;;12.60;99.90;;;;;;5030532;28;20050;-81
2021/09/03 03:29:57;;;;;;;15.48;10.30;;;12.60;99.90;;;;;;5047201;28;20041;-81
2021/09/03 03:32:23;;;;;;;18.23;10.38;;;12.60;99.90;;;;;;5047224;28;20029;-81
2021/09/03 03:34:48;;;;;;;17.48;10.10;;;12.60;99.90;;;;;;5046800;28;20056;-81
2021/09/03 03:37:14;;;;;;;19.40;11.50;;;12.50;99.90;;;;;;5046883;28;20033;-82
2021/09/03 03:39:39;;;;;;;20.08;11.45;;;12.50;99.90;;;;;;5046823;28;20038;-82
2021/09/03 03:42:05;;;;;;;20.40;11.00;;;12.40;99.90;;;;;;5047313;28;20045;-82
2021/09/03 03:44:33;;;;;;;23.77;12.55;;;12.50;99.90;;;;;;5047153;28;20092;-82
2021/09/03 03:53:57;;;;;;;22.33;12.93;;;12.40;99.90;;;;;;4933459;22;20061;-81
2021/09/03 03:56:22;;;;;;;20.90;12.00;;;12.40;99.90;;;;;;5080504;28;20044;-82
2021/09/03 03:58:48;;;;;;;22.35;14.63;;;12.40;99.90;;;;;;5049611;28;20463;-82
2021/09/03 04:01:14;;;;;;;23.52;13.30;;;12.40;99.90;;;;;;5046503;28;20037;-82
2021/09/03 04:03:39;;;;;;;25.90;14.07;;;12.30;99.90;;;;;;5063155;28;20037;-81
2021/09/03 04:06:05;;;;;;;20.00;12.70;;;12.30;99.90;;;;;;5062924;28;20033;-82
2021/09/03 04:08:31;;;;;;;18.60;10.90;;;12.30;99.90;;;;;;5066175;28;20469;-82
2021/09/03 04:10:56;;;;;;;22.60;12.45;;;12.30;99.90;;;;;;5066249;28;20033;-82
2021/09/03 04:13:22;;;;;;;21.65;12.88;;;12.30;99.90;;;;;;5066183;28;20047;-82
2021/09/03 04:15:47;;;;;;;20.25;12.38;;;12.30;99.90;;;;;;5049795;28;20021;-81
2021/09/03 04:18:13;;;;;;;22.50;13.90;;;12.30;99.90;;;;;;5049351;28;20060;-81
2021/09/03 04:20:39;;;;;;;22.45;12.35;;;12.20;99.90;;;;;;5049307;28;20358;-81
2021/09/03 04:23:04;;;;;;;21.08;12.43;;;12.20;99.90;;;;;;5049232;28;20556;-82
2021/09/03 04:25:30;;;;;;;19.67;11.73;;;12.10;99.90;;;;;;5066028;28;20031;-82
2021/09/03 04:27:56;;;;;;;21.00;11.98;;;12.10;99.90;;;;;;5049297;28;20044;-81
2021/09/03 04:30:21;;;;;;;19.90;12.25;;;12.20;99.90;;;;;;5049340;28;20033;-81
2021/09/03 04:32:47;;;;;;;19.40;12.00;;;12.10;99.90;;;;;;5049430;28;20052;-82
2021/09/03 04:35:12;;;;;;;20.02;11.60;;;12.10;99.90;;;;;;5049038;28;20067;-81
2021/09/03 04:37:46;;;;;;;21.15;12.32;;;12.10;99.90;;;;;;5049097;28;20033;-81
2021/09/03 04:40:13;;;;;;;22.38;11.90;;;12.00;99.90;;;;;;5049017;28;20029;-82
2021/09/03 04:42:39;;;;;;;20.55;12.32;;;12.10;99.90;;;;;;5075658;28;20044;-81
2021/09/03 04:45:05;;;;;;;22.13;12.65;;;12.10;99.90;;;;;;5054432;28;20075;-82
2021/09/03 04:49:56;;;;;;;23.48;13.98;;;12.10;99.90;;;;;;5023944;22;20050;-82
2021/09/03 04:52:22;;;;;;;20.23;11.27;;;12.00;99.90;;;;;;5014610;28;20034;-82
2021/09/03 04:54:47;;;;;;;23.55;13.45;;;12.00;99.90;;;;;;4990029;28;20026;-82
2021/09/03 04:57:13;;;;;;;22.98;13.10;;;12.00;99.90;;;;;;5006212;28;20165;-81
2021/09/03 04:59:39;;;;;;;20.80;12.52;;;12.00;99.90;;;;;;5007358;28;20430;-81
2021/09/03 05:02:04;;;;;;;20.83;12.20;;;12.00;99.90;;;;;;5007627;28;20092;-81
2021/09/03 05:04:30;;;;;;;23.17;14.02;;;12.00;99.90;;;;;;5021042;28;20093;-81
2021/09/03 05:06:56;;;;;;;18.80;11.95;;;12.00;99.90;;;;;;5027363;28;20041;-83
2021/09/03 05:09:21;;;;;;;23.83;14.25;;;12.00;99.90;;;;;;5028411;28;20022;-81
2021/09/03 05:11:47;;;;;;;20.40;12.73;;;12.00;99.90;;;;;;5041534;28;20029;-82
2021/09/03 05:14:12;;;;;;;23.83;11.52;;;12.00;99.90;;;;;;5041799;28;20026;-81
2021/09/03 05:16:38;;;;;;;27.45;13.40;;;11.90;99.90;;;;;;5024607;28;20092;-82
2021/09/03 05:21:51;;;;;;;29.95;16.67;;;12.00;99.90;;;;;;5032412;23;20053;-83
2021/09/03 05:24:16;;;;;;;28.83;16.80;;;12.00;99.90;;;;;;5024728;28;20053;-83
2021/09/03 05:26:42;;;;;;;29.23;16.25;;;12.00;99.90;;;;;;5008709;28;20026;-83
2021/09/03 05:29:08;;;;;;;24.17;12.45;;;12.00;99.90;;;;;;5004854;28;20061;-82
2021/09/03 05:31:33;;;;;;;22.55;12.07;;;12.10;99.90;;;;;;5018781;28;20022;-82
2021/09/03 05:33:59;;;;;;;32.08;16.83;;;12.10;99.90;;;;;;5043897;28;20033;-82
2021/09/03 05:36:24;;;;;;;28.30;14.85;;;12.10;99.90;;;;;;5027227;28;20052;-82
2021/09/03 05:38:50;;;;;;;24.85;13.38;;;12.10;99.90;;;;;;5027696;28;20029;-84
2021/09/03 05:41:16;;;;;;;30.02;15.75;;;12.10;99.90;;;;;;5045301;28;20037;-84
2021/09/03 05:43:42;;;;;;;26.23;15.00;;;12.10;99.90;;;;;;5027883;28;20033;-83
2021/09/03 05:46:07;;;;;;;28.35;16.77;;;12.10;99.90;;;;;;5044039;28;20124;-84
2021/09/03 05:48:33;;;;;;;27.85;15.85;;;12.10;99.90;;;;;;5010228;28;20557;-84
2021/09/03 05:50:58;;;;;;;26.33;16.08;;;12.20;99.90;;;;;;5007761;28;20030;-83
2021/09/03 05:53:24;;;;;;;25.20;15.10;;;12.10;99.90;;;;;;5040596;28;20117;-83
2021/09/03 05:55:50;;;;;;;23.23;12.82;;;12.20;99.90;;;;;;5040663;28;20033;-84
2021/09/03 05:58:15;;;;;;;26.90;14.93;;;12.20;99.90;;;;;;5040526;28;20054;-84
2021/09/03 06:00:41;;;;;;;22.55;13.02;;;12.30;99.90;;;;;;5040687;28;20049;-84
2021/09/03 06:03:06;;;;;;;26.50;14.88;;;12.30;99.90;;;;;;5040550;28;20046;-84
2021/09/03 06:05:32;;;;;;;25.38;14.32;;;12.30;99.90;;;;;;5057073;28;20046;-84
2021/09/03 06:07:57;;;;;;;24.48;12.93;;;12.40;99.90;;;;;;5023630;28;20482;-85
2021/09/03 06:10:23;;;;;;;18.83;11.88;;;12.50;99.90;;;;;;5007543;28;20038;-84
2021/09/03 06:12:50;;;;;;;17.88;10.80;;;12.50;99.90;;;;;;5007572;28;20081;-84
2021/09/03 06:15:16;;;;;;;18.20;12.30;;;12.60;99.90;;;;;;5040391;28;20169;-84
2021/09/03 06:17:41;;;;;;;22.63;13.07;;;12.60;99.90;;;;;;5024041;28;20212;-84
2021/09/03 06:20:09;;;;;;;22.60;12.77;;;12.70;99.90;;;;;;5027981;28;20060;-84
2021/09/03 06:22:35;;;;;;;25.45;14.73;;;12.80;99.90;;;;;;5027634;28;20038;-83
2021/09/03 06:25:01;;;;;;;18.40;11.57;;;12.90;99.90;;;;;;5029277;28;20470;-84
2021/09/03 06:27:27;;;;;;;24.85;13.60;;;13.00;99.90;;;;;;5011439;28;20033;-84
2021/09/03 06:29:53;;;;;;;20.98;11.90;;;13.00;99.90;;;;;;5011324;28;20084;-84
2021/09/03 06:32:21;;;;;;;23.15;12.88;;;13.20;99.90;;;;;;5027833;28;20030;-83
2021/09/03 06:34:49;;;;;;;20.98;13.05;;;13.30;99.90;;;;;;5027720;28;20268;-84
2021/09/03 06:37:16;;;;;;;23.85;12.80;;;13.30;99.90;;;;;;5027127;28;20041;-83
2021/09/03 06:39:42;;;;;;;20.58;13.07;;;13.50;99.90;;;;;;5011173;28;20030;-83
2021/09/03 06:42:09;;;;;;;22.92;12.95;;;13.60;99.90;;;;;;5011128;28;20038;-83
2021/09/03 06:44:36;;;;;;;21.73;12.93;;;13.80;99.90;;;;;;5027545;28;20037;-84
2021/09/03 06:50:05;;;;;;;25.98;14.95;;;13.90;99.90;;;;;;4988241;28;20058;-83
2021/09/03 06:52:34;;;;;;;26.38;14.75;;;14.00;99.90;;;;;;4988349;28;20094;-83
2021/09/03 06:55:03;;;;;;;28.20;15.02;;;14.20;99.90;;;;;;4988554;28;20467;-82
2021/09/03 06:57:28;;;;;;;21.02;13.18;;;14.20;99.90;;;;;;5004478;28;20037;-84
2021/09/03 06:59:54;;;;;;;21.95;14.57;;;14.30;99.90;;;;;;4988372;28;20171;-82
2021/09/03 07:02:19;;;;;;;22.60;13.43;;;14.50;99.90;;;;;;4988383;28;20043;-84
2021/09/03 07:04:45;;;;;;;20.95;12.20;;;14.50;99.90;;;;;;4978891;28;20058;-82
2021/09/03 07:07:11;;;;;;;17.77;12.48;;;14.70;99.90;;;;;;4952469;29;20051;-83
2021/09/03 07:09:36;;;;;;;17.05;10.38;;;14.80;99.90;;;;;;4952687;29;20103;-83
2021/09/03 07:12:02;;;;;;;23.58;14.02;;;14.90;99.90;;;;;;4968887;29;20033;-83
2021/09/03 07:14:28;;;;;;;19.42;12.80;;;15.00;99.90;;;;;;4984870;28;20058;-83
2021/09/03 07:16:53;;;;;;;22.13;13.20;;;15.10;99.90;;;;;;4968425;29;20023;-82
2021/09/03 07:19:21;;;;;;;22.40;13.93;;;15.20;99.90;;;;;;4984733;28;20031;-83
2021/09/03 07:21:47;;;;;;;19.25;12.35;;;15.40;99.90;;;;;;4984673;28;20035;-83
2021/09/03 07:24:13;;;;;;;19.83;13.40;;;15.50;99.90;;;;;;4984220;28;20046;-82
2021/09/03 07:26:38;;;;;;;20.70;12.07;;;15.70;99.90;;;;;;4984248;28;20038;-82
2021/09/03 07:29:05;;;;;;;20.95;12.00;;;15.80;99.90;;;;;;4967942;28;20035;-83
2021/09/03 07:31:34;;;;;;;18.85;11.45;;;15.90;99.90;;;;;;4984163;28;20035;-82
2021/09/03 07:34:00;;;;;;;17.73;10.50;;;16.10;99.90;;;;;;4984222;28;20027;-83
2021/09/03 07:36:26;;;;;;;18.70;10.65;;;16.20;99.90;;;;;;4984312;28;20471;-82
2021/09/03 07:38:52;;;;;;;16.10;11.10;;;16.30;99.90;;;;;;4983994;28;20059;-83
2021/09/03 07:41:18;;;;;;;15.38;10.90;;;16.40;99.90;;;;;;4983986;28;20031;-82
2021/09/03 07:43:44;;;;;;;15.98;10.02;;;16.50;99.90;;;;;;4984251;28;20404;-83
2021/09/03 07:46:29;;;;;;;18.20;11.27;;;16.70;99.90;;;;;;4984027;28;20403;-82
2021/09/03 07:48:55;;;;;;;17.92;11.48;;;16.60;99.90;;;;;;4947080;29;20071;-83
2021/09/03 07:51:21;;;;;;;18.33;10.63;;;16.60;99.90;;;;;;4931184;29;20508;-83
2021/09/03 07:53:46;;;;;;;15.05;10.85;;;16.60;99.90;;;;;;4939802;29;20087;-82
2021/09/03 07:56:12;;;;;;;16.95;11.57;;;16.90;99.90;;;;;;4939930;29;20114;-83
2021/09/03 07:58:38;;;;;;;15.38;10.98;;;17.00;99.90;;;;;;4946749;29;20032;-83
2021/09/03 08:01:03;;;;;;;15.85;10.63;;;17.20;99.90;;;;;;4930964;29;20043;-83
2021/09/03 08:03:29;;;;;;;21.90;14.07;;;17.20;99.90;;;;;;4946909;29;20043;-83
2021/09/03 08:05:56;;;;;;;18.45;11.98;;;17.10;99.90;;;;;;4936903;28;20048;-83
2021/09/03 08:08:22;;;;;;;16.02;10.70;;;17.50;99.90;;;;;;4946536;29;20131;-83
2021/09/03 08:10:48;;;;;;;14.27;10.40;;;17.70;99.90;;;;;;4946334;29;20212;-82
2021/09/03 08:13:14;;;;;;;17.50;10.70;;;17.80;99.90;;;;;;4930456;29;20791;-83
2021/09/03 08:15:41;;;;;;;14.57;10.40;;;17.70;99.90;;;;;;4946416;29;20036;-83
2021/09/03 08:18:07;;;;;;;19.67;12.18;;;18.00;99.90;;;;;;4946133;29;20031;-83
2021/09/03 08:20:34;;;;;;;15.93;10.75;;;18.10;99.90;;;;;;4946164;29;20088;-83
2021/09/03 08:23:00;;;;;;;12.68;9.40;;;18.40;99.90;;;;;;4930857;29;20111;-84
2021/09/03 08:25:26;;;;;;;13.07;8.43;;;18.50;99.90;;;;;;4947117;29;20044;-83
2021/09/03 08:27:51;;;;;;;14.05;9.00;;;18.60;99.90;;;;;;4948672;29;20159;-83
2021/09/03 08:30:18;;;;;;;13.70;9.15;;;18.80;99.90;;;;;;4963605;29;20032;-83
2021/09/03 08:32:45;;;;;;;11.90;9.10;;;18.70;99.90;;;;;;4963795;29;20043;-83
2021/09/03 08:35:11;;;;;;;11.13;7.75;;;18.80;99.90;;;;;;4947645;28;20555;-83
2021/09/03 08:37:37;;;;;;;9.23;6.88;;;19.00;99.90;;;;;;4963540;29;20040;-82
2021/09/03 08:40:03;;;;;;;16.35;10.27;;;19.20;99.90;;;;;;4947264;29;20024;-82
2021/09/03 08:42:30;;;;;;;16.02;10.30;;;19.20;99.90;;;;;;4946350;28;20054;-83
2021/09/03 08:44:56;;;;;;;14.70;9.52;;;19.00;99.90;;;;;;4963593;29;20024;-82
2021/09/03 08:47:22;;;;;;;15.88;9.40;;;19.00;99.90;;;;;;4946986;28;20498;-83
2021/09/03 08:49:50;;;;;;;13.25;8.82;;;19.30;99.90;;;;;;4946968;29;20058;-82
2021/09/03 08:52:17;;;;;;;13.20;8.48;;;19.50;99.90;;;;;;4963398;29;20055;-82
2021/09/03 08:54:42;;;;;;;12.82;8.15;;;19.70;99.90;;;;;;4947195;28;20051;-82
2021/09/03 08:57:11;;;;;;;10.40;7.18;;;19.90;99.90;;;;;;4963195;28;20036;-82
2021/09/03 08:59:37;;;;;;;11.38;7.63;;;19.90;99.90;;;;;;4946986;28;20035;-82
2021/09/03 09:02:17;;;;;;;11.10;7.28;;;20.00;99.90;;;;;;4963087;29;20043;-82
2021/09/03 09:04:44;;;;;;;10.15;7.80;;;20.40;99.90;;;;;;4963016;29;20032;-82
2021/09/03 09:07:11;;;;;;;9.90;7.00;;;20.50;99.90;;;;;;4962997;29;20040;-81
2021/09/03 09:09:43;;;;;;;11.30;6.97;;;20.60;99.90;;;;;;4982187;28;20031;-83
2021/09/03 09:12:12;;;;;;;10.90;6.03;;;20.50;99.90;;;;;;4966211;28;20539;-82
2021/09/03 09:14:59;;;;;;;10.18;6.53;;;20.60;99.90;;;;;;4966088;28;20054;-83
2021/09/03 09:17:28;;;;;;;10.00;6.90;;;20.90;99.90;;;;;;4949672;29;20027;-82
2021/09/03 09:19:54;;;;;;;10.52;6.97;;;20.80;99.90;;;;;;4965814;28;20472;-82
2021/09/03 09:22:20;;;;;;;9.57;6.57;;;21.00;99.90;;;;;;4965976;29;20047;-83
2021/09/03 09:24:47;;;;;;;9.43;6.88;;;21.10;99.90;;;;;;4965854;28;20039;-83
2021/09/03 09:27:26;;;;;;;9.68;5.93;;;21.10;99.90;;;;;;4981894;28;20067;-82
2021/09/03 09:29:52;;;;;;;11.13;6.63;;;21.30;99.90;;;;;;4965801;29;20031;-83
2021/09/03 09:32:19;;;;;;;10.82;7.80;;;21.50;99.90;;;;;;4965877;29;20448;-84
2021/09/03 09:34:46;;;;;;;14.93;8.52;;;21.40;99.90;;;;;;4965818;28;20039;-83
2021/09/03 09:37:17;;;;;;;14.07;8.25;;;21.00;99.90;;;;;;4966871;29;20035;-82
2021/09/03 09:39:52;;;;;;;11.23;7.32;;;21.10;99.90;;;;;;4965539;29;20058;-83
2021/09/03 09:42:23;;;;;;;11.02;7.75;;;21.00;99.90;;;;;;4965460;29;20123;-84
2021/09/03 09:45:14;;;;;;;10.18;7.30;;;21.10;99.90;;;;;;4965754;29;20040;-84
2021/09/03 09:47:42;;;;;;;10.30;6.15;;;21.70;99.90;;;;;;4946441;29;20083;-83
2021/09/03 09:50:29;;;;;;;9.02;5.75;;;21.80;99.90;;;;;;4965769;29;20123;-85
2021/09/03 09:53:09;;;;;;;8.05;5.00;;;22.10;99.90;;;;;;4966602;28;20550;-82
2021/09/03 09:55:37;;;;;;;7.82;5.00;;;22.30;99.90;;;;;;4966744;28;20037;-83
2021/09/03 09:58:04;;;;;;;9.73;6.15;;;22.00;99.90;;;;;;4981574;28;20049;-83
2021/09/03 10:00:33;;;;;;;8.00;6.20;;;22.00;99.90;;;;;;4965459;29;20055;-84
2021/09/03 10:03:04;;;;;;;10.38;6.07;;;22.20;99.90;;;;;;4965457;29;20047;-84
2021/09/03 10:05:31;;;;;;;6.95;4.10;;;22.20;99.90;;;;;;4965656;29;20134;-83
2021/09/03 10:07:58;;;;;;;11.52;7.70;;;22.20;99.90;;;;;;4965185;29;20031;-83
2021/09/03 10:10:23;;;;;;;8.07;5.43;;;21.70;99.90;;;;;;4981541;28;20055;-83
2021/09/03 10:12:50;;;;;;;7.38;5.50;;;22.20;99.90;;;;;;4981457;28;20042;-82
2021/09/03 10:15:17;;;;;;;11.15;6.82;;;21.90;99.90;;;;;;4981599;28;20042;-84
2021/09/03 10:17:44;;;;;;;8.75;5.25;;;22.20;99.90;;;;;;4981096;28;20535;-83
2021/09/03 10:20:10;;;;;;;7.93;4.88;;;22.40;99.90;;;;;;4965287;29;20031;-84
2021/09/03 10:22:44;;;;;;;8.60;5.72;;;22.50;99.90;;;;;;4965493;29;20420;-83
2021/09/03 10:25:10;;;;;;;10.57;6.85;;;22.50;99.90;;;;;;4981391;28;20074;-84
2021/09/03 10:27:37;;;;;;;11.88;7.60;;;22.30;99.90;;;;;;4965134;29;20062;-83
2021/09/03 10:30:19;;;;;;;9.90;5.72;;;22.00;99.90;;;;;;4981679;28;20380;-83
2021/09/03 10:32:45;;;;;;;9.38;5.72;;;22.60;99.90;;;;;;4966692;28;20062;-83
2021/09/03 10:35:15;;;;;;;9.80;5.38;;;22.70;99.90;;;;;;4965164;28;20027;-83
2021/09/03 10:37:42;;;;;;;7.68;4.47;;;22.80;99.90;;;;;;4965219;29;20040;-83
2021/09/03 10:40:20;;;;;;;8.35;4.20;;;23.10;99.90;;;;;;4965234;29;20138;-83
2021/09/03 10:42:48;;;;;;;6.78;4.63;;;23.10;99.90;;;;;;4965113;29;20079;-83
2021/09/03 10:45:36;;;;;;;9.00;5.17;;;23.20;99.90;;;;;;4965035;29;20145;-84
2021/09/03 10:48:08;;;;;;;8.05;4.55;;;23.20;99.90;;;;;;4998784;22;20058;-82
2021/09/03 10:50:50;;;;;;;5.15;3.88;;;23.30;99.90;;;;;;5000781;28;20035;-83
2021/09/03 10:53:18;;;;;;;8.15;4.82;;;23.50;99.90;;;;;;5001062;28;20102;-83
2021/09/03 10:55:47;;;;;;;7.50;4.15;;;23.20;99.90;;;;;;5017253;28;20035;-83
2021/09/03 10:58:37;;;;;;;6.90;4.53;;;23.40;99.90;;;;;;4968268;28;20070;-82
2021/09/03 11:01:09;;;;;;;6.72;4.63;;;23.60;99.90;;;;;;4984518;28;20067;-82
2021/09/03 11:03:49;;;;;;;9.13;3.95;;;23.60;99.90;;;;;;4984389;28;20110;-81
2021/09/03 11:06:27;;;;;;;5.55;3.17;;;23.70;99.90;;;;;;5003369;28;20034;-81
2021/09/03 11:08:57;;;;;;;6.15;4.43;;;23.90;99.90;;;;;;4988141;28;20046;-81
2021/09/03 11:11:25;;;;;;;;;;;24.10;99.90;;;;;;5004842;28;20037;-81
2021/09/03 11:14:06;;;;;;;7.70;4.55;;;24.10;99.90;;;;;;5004113;28;19910;-82
2021/09/03 11:16:34;;;;;;;6.18;3.88;;;23.70;99.90;;;;;;4987752;28;20035;-82
2021/09/03 11:19:32;;;;;;;7.35;3.53;;;23.60;99.90;;;;;;4987637;28;20034;-81
2021/09/03 11:22:04;;;;;;;4.55;3.28;;;23.80;99.90;;;;;;4971368;28;20043;-82
2021/09/03 11:24:32;;;;;;;7.57;4.75;;;24.00;99.90;;;;;;4987523;28;20035;-82
2021/09/03 11:27:01;;;;;;;10.03;7.10;;;23.60;99.90;;;;;;4987264;28;20054;-81
2021/09/03 11:29:45;;;;;;;6.23;4.20;;;23.00;99.90;;;;;;4988648;28;20065;-81
2021/09/03 11:32:17;;;;;;;7.13;4.25;;;23.60;99.90;;;;;;5003613;28;20087;-81
2021/09/03 11:34:52;;;;;;;6.65;4.22;;;23.90;99.90;;;;;;4987752;28;20059;-81
2021/09/03 11:37:36;;;;;;;4.78;3.22;;;24.10;99.90;;;;;;4987029;28;20035;-82
2021/09/03 11:40:06;;;;;;;8.32;4.25;;;24.20;99.90;;;;;;4987224;28;20090;-81
2021/09/03 11:42:34;;;;;;;7.35;3.75;;;24.10;99.90;;;;;;4987156;28;20054;-81
2021/09/03 11:45:03;;;;;;;13.05;6.97;;;24.10;99.90;;;;;;4987114;28;20040;-82
2021/09/03 11:47:35;;;;;;;6.50;4.30;;;23.80;99.90;;;;;;4986480;28;20034;-82
2021/09/03 11:50:16;;;;;;;5.18;3.28;;;24.50;99.90;;;;;;4986909;28;20058;-82
2021/09/03 11:52:43;;;;;;;5.78;3.65;;;24.50;99.90;;;;;;4986958;28;20031;-81
2021/09/03 11:55:14;;;;;;;6.72;4.38;;;24.70;99.90;;;;;;4987208;28;20038;-81
2021/09/03 11:57:55;;;;;;;6.07;3.85;;;24.70;99.90;;;;;;4970585;28;20035;-82
2021/09/03 12:00:27;;;;;;;10.18;6.47;;;24.40;99.90;;;;;;4986856;28;20035;-82
2021/09/03 12:02:53;;;;;;;7.10;5.40;;;23.50;99.90;;;;;;5019168;28;20093;-81
2021/09/03 12:05:20;;;;;;;4.45;3.63;;;24.00;99.90;;;;;;4986829;28;20041;-81
2021/09/03 12:07:59;;;;;;;6.43;3.80;;;24.30;99.90;;;;;;4986266;28;20078;-82
2021/09/03 12:10:53;;;;;;;5.32;3.38;;;24.20;99.90;;;;;;4986777;28;20118;-81
2021/09/03 12:13:25;;;;;;;6.50;3.20;;;24.60;99.90;;;;;;4985329;28;20409;-81
2021/09/03 12:16:01;;;;;;;5.55;3.47;;;24.50;99.90;;;;;;4986241;28;20039;-82
2021/09/03 12:18:29;;;;;;;11.90;6.22;;;24.70;99.90;;;;;;4986299;28;20043;-82
2021/09/03 12:21:01;;;;;;;6.90;4.75;;;23.80;99.90;;;;;;4986525;28;20030;-81
2021/09/03 12:23:33;;;;;;;11.43;6.43;;;24.20;99.90;;;;;;4986345;28;20050;-83
2021/09/03 12:26:03;;;;;;;8.90;5.45;;;23.80;99.90;;;;;;5002346;28;20039;-81
2021/09/03 12:28:30;;;;;;;9.70;5.47;;;24.30;99.90;;;;;;5018573;28;20062;-82
2021/09/03 12:30:56;;;;;;;10.82;4.82;;;24.30;99.90;;;;;;4986220;28;20029;-82
2021/09/03 12:33:28;;;;;;;6.50;3.75;;;24.50;99.90;;;;;;5002341;28;20034;-82
2021/09/03 12:35:57;;;;;;;9.85;6.68;;;25.10;99.90;;;;;;4986061;28;20038;-82
2021/09/03 12:38:33;;;;;;;8.15;4.10;;;24.00;99.90;;;;;;4985875;28;20038;-81
2021/09/03 12:41:04;;;;;;;7.20;4.43;;;24.50;99.90;;;;;;4987490;28;20023;-81
2021/09/03 12:43:31;;;;;;;4.95;3.42;;;24.70;99.90;;;;;;4985957;28;20043;-81
2021/09/03 12:45:56;;;;;;;6.13;3.92;;;24.50;99.90;;;;;;5018391;28;20034;-81
2021/09/03 12:48:22;;;;;;;6.10;3.58;;;24.10;99.90;;;;;;5002491;23;20462;-80
2021/09/03 12:50:48;;;;;;;3.03;2.42;;;24.00;99.90;;;;;;5005863;28;20429;-81
2021/09/03 12:53:21;;;;;;;6.38;4.15;;;24.50;99.90;;;;;;5005360;28;20106;-81